Time;durP1;ratioP1;P1;durP2;ratioP2;P2;SDS_P1;SDS_P2;PMS_P1;PMS_P2;Temp;Humidity;BMP_temperature;BMP_pressure;BME280_temperature;BME280_humidity;BME280_pressure;Samples;Min_cycle;Max_cycle;Signal;HPM_P1;HPM_P2
2023/08/23 00:00:49;;;;;;;10.70;9.67;;;;;;;;;;5057183;28;20449;-82
2023/08/23 00:03:16;;;;;;;16.77;10.37;;;;;;;;;;5058826;28;20480;-82
2023/08/23 00:05:44;;;;;;;11.63;10.53;;;;;;;;;;5060154;28;20482;-85
2023/08/23 00:08:11;;;;;;;11.63;9.90;;;;;;;;;;5060586;28;20486;-83
2023/08/23 00:10:38;;;;;;;14.80;11.33;;;;;;;;;;5060657;28;20467;-84
2023/08/23 00:13:07;;;;;;;14.23;10.20;;;;;;;;;;5060598;28;21015;-83
2023/08/23 00:15:34;;;;;;;12.10;10.90;;;;;;;;;;5060859;28;20457;-83
2023/08/23 00:18:01;;;;;;;12.83;11.10;;;;;;;;;;5060608;28;20453;-83
2023/08/23 00:20:28;;;;;;;12.90;11.70;;;;;;;;;;5060425;28;20452;-83
2023/08/23 00:22:55;;;;;;;12.47;11.00;;;;;;;;;;5060387;28;20555;-83
2023/08/23 00:25:22;;;;;;;13.97;12.10;;;;;;;;;;5059178;28;20451;-84
2023/08/23 00:27:49;;;;;;;13.87;12.47;;;;;;;;;;5059817;28;20531;-83
2023/08/23 00:30:18;;;;;;;12.47;11.27;;;;;;;;;;5059820;28;20493;-83
2023/08/23 00:32:45;;;;;;;13.10;11.83;;;;;;;;;;5060635;28;20479;-83
2023/08/23 00:35:12;;;;;;;23.00;12.70;;;;;;;;;;5060314;28;20449;-84
2023/08/23 00:37:39;;;;;;;13.37;12.07;;;;;;;;;;5059468;28;20453;-84
2023/08/23 00:40:07;;;;;;;14.10;11.20;;;;;;;;;;5059637;28;20449;-84
2023/08/23 00:42:34;;;;;;;13.30;12.07;;;;;;;;;;5060253;28;20476;-84
2023/08/23 00:45:01;;;;;;;15.87;12.90;;;;;;;;;;5060657;28;20461;-84
2023/08/23 00:47:30;;;;;;;14.13;12.23;;;;;;;;;;5060306;28;20457;-84
2023/08/23 00:49:57;;;;;;;12.70;11.50;;;;;;;;;;5059961;28;20491;-84
2023/08/23 00:52:24;;;;;;;15.77;12.10;;;;;;;;;;5060207;28;20555;-84
2023/08/23 00:54:51;;;;;;;15.67;12.20;;;;;;;;;;5059964;28;20441;-83
2023/08/23 00:57:19;;;;;;;13.70;12.37;;;;;;;;;;5060560;28;20452;-84
2023/08/23 00:59:46;;;;;;;13.60;11.63;;;;;;;;;;5060387;28;20444;-84
2023/08/23 01:02:13;;;;;;;16.27;12.37;;;;;;;;;;5060470;28;20828;-84
2023/08/23 01:04:42;;;;;;;19.07;13.20;;;;;;;;;;5060236;28;20464;-85
2023/08/23 01:07:12;;;;;;;16.20;10.70;;;;;;;;;;5060103;28;20456;-84
2023/08/23 01:09:43;;;;;;;14.97;11.30;;;;;;;;;;5060055;28;20495;-84
2023/08/23 01:12:12;;;;;;;13.50;11.57;;;;;;;;;;5060306;28;20543;-84
2023/08/23 01:14:42;;;;;;;13.83;12.43;;;;;;;;;;5060291;28;20472;-84
2023/08/23 01:17:10;;;;;;;14.63;12.63;;;;;;;;;;5060071;28;20444;-84
2023/08/23 01:19:45;;;;;;;15.60;12.20;;;;;;;;;;5059943;28;20459;-84
2023/08/23 01:22:14;;;;;;;12.30;10.70;;;;;;;;;;5059749;28;20456;-84
2023/08/23 01:24:43;;;;;;;14.77;13.20;;;;;;;;;;5059277;28;20464;-84
2023/08/23 01:27:10;;;;;;;15.23;13.73;;;;;;;;;;5059238;28;20456;-83
2023/08/23 01:29:37;;;;;;;12.90;11.70;;;;;;;;;;5059419;28;20511;-84
2023/08/23 01:32:08;;;;;;;18.20;12.63;;;;;;;;;;5060175;28;20460;-83
2023/08/23 01:34:37;;;;;;;15.33;13.23;;;;;;;;;;5060290;28;20453;-84
2023/08/23 01:37:05;;;;;;;14.87;13.30;;;;;;;;;;5059944;28;20843;-84
2023/08/23 01:39:33;;;;;;;12.67;11.47;;;;;;;;;;5059973;28;20452;-83
2023/08/23 01:42:02;;;;;;;16.37;11.00;;;;;;;;;;5059871;28;20485;-84
2023/08/23 01:44:29;;;;;;;14.53;11.53;;;;;;;;;;5059167;28;21012;-83
2023/08/23 01:46:56;;;;;;;13.20;11.90;;;;;;;;;;5059929;28;20448;-84
2023/08/23 01:49:23;;;;;;;13.50;12.10;;;;;;;;;;5059924;28;20495;-83
2023/08/23 01:51:50;;;;;;;12.03;10.93;;;;;;;;;;5060040;28;20468;-84
2023/08/23 01:54:18;;;;;;;12.43;11.10;;;;;;;;;;5060607;28;20993;-83
2023/08/23 01:56:45;;;;;;;18.20;13.70;;;;;;;;;;5060479;28;20455;-83
2023/08/23 01:59:14;;;;;;;14.73;13.23;;;;;;;;;;5059473;28;20444;-83
2023/08/23 02:01:41;;;;;;;14.13;12.77;;;;;;;;;;5058739;28;20459;-84
2023/08/23 02:04:08;;;;;;;12.33;11.20;;;;;;;;;;5058505;28;20440;-83
2023/08/23 02:06:35;;;;;;;12.80;11.50;;;;;;;;;;5058862;28;20437;-83
2023/08/23 02:09:02;;;;;;;22.37;13.47;;;;;;;;;;5058097;28;20492;-84
2023/08/23 02:11:29;;;;;;;13.30;11.50;;;;;;;;;;5058064;28;20445;-83
2023/08/23 02:13:57;;;;;;;15.40;11.40;;;;;;;;;;5058655;28;20532;-84
2023/08/23 02:16:28;;;;;;;9.83;8.73;;;;;;;;;;5059003;28;20456;-83
2023/08/23 02:18:55;;;;;;;11.80;10.60;;;;;;;;;;5058921;28;20443;-83
2023/08/23 02:21:22;;;;;;;13.87;11.13;;;;;;;;;;5058956;28;20524;-84
2023/08/23 02:23:52;;;;;;;16.80;12.70;;;;;;;;;;5063814;28;20479;-82
2023/08/23 02:26:19;;;;;;;13.53;10.80;;;;;;;;;;5063336;28;20465;-82
2023/08/23 02:28:46;;;;;;;14.57;11.70;;;;;;;;;;5062941;28;20945;-82
2023/08/23 02:31:14;;;;;;;12.40;9.57;;;;;;;;;;5062448;28;20468;-82
2023/08/23 02:33:42;;;;;;;12.23;11.03;;;;;;;;;;5062540;28;20547;-82
2023/08/23 02:36:09;;;;;;;10.50;9.50;;;;;;;;;;5062396;28;20448;-82
2023/08/23 02:38:36;;;;;;;12.10;10.37;;;;;;;;;;5062677;28;20440;-82
2023/08/23 02:41:04;;;;;;;11.00;9.43;;;;;;;;;;5062707;28;20937;-84
2023/08/23 02:43:31;;;;;;;11.93;10.83;;;;;;;;;;5062993;28;20814;-82
2023/08/23 02:45:58;;;;;;;13.40;10.17;;;;;;;;;;5063612;28;20480;-81
2023/08/23 02:48:25;;;;;;;12.33;11.03;;;;;;;;;;5063412;28;20443;-82
2023/08/23 02:50:54;;;;;;;12.07;8.73;;;;;;;;;;5063580;28;20560;-84
2023/08/23 02:53:21;;;;;;;11.13;10.17;;;;;;;;;;5063528;28;21012;-84
2023/08/23 02:55:48;;;;;;;11.60;10.40;;;;;;;;;;5062689;28;20449;-84
2023/08/23 02:58:15;;;;;;;10.50;9.10;;;;;;;;;;5062676;28;20452;-84
2023/08/23 03:00:42;;;;;;;12.03;9.87;;;;;;;;;;5063504;28;20453;-82
2023/08/23 03:03:09;;;;;;;11.07;9.50;;;;;;;;;;5062692;28;20468;-82
2023/08/23 03:05:37;;;;;;;10.83;9.10;;;;;;;;;;5063690;28;20472;-82
2023/08/23 03:08:05;;;;;;;11.70;10.10;;;;;;;;;;5062634;28;20440;-84
2023/08/23 03:10:32;;;;;;;9.60;8.70;;;;;;;;;;5063887;28;20481;-82
2023/08/23 03:13:00;;;;;;;13.67;9.40;;;;;;;;;;5062785;28;20504;-82
2023/08/23 03:15:27;;;;;;;15.57;9.23;;;;;;;;;;5061014;28;20455;-82
2023/08/23 03:17:54;;;;;;;10.20;9.30;;;;;;;;;;5060884;28;20822;-82
2023/08/23 03:20:21;;;;;;;11.80;10.20;;;;;;;;;;5063201;28;20464;-81
2023/08/23 03:22:48;;;;;;;14.93;9.80;;;;;;;;;;5063517;28;20480;-82
2023/08/23 03:25:17;;;;;;;11.00;9.90;;;;;;;;;;5063158;28;20452;-82
2023/08/23 03:27:44;;;;;;;14.17;9.77;;;;;;;;;;5063048;28;20506;-82
2023/08/23 03:30:11;;;;;;;12.27;8.63;;;;;;;;;;5064225;28;20532;-83
2023/08/23 03:32:38;;;;;;;10.17;9.27;;;;;;;;;;5064692;28;20477;-81
2023/08/23 03:35:06;;;;;;;9.73;8.73;;;;;;;;;;5065892;28;20464;-82
2023/08/23 03:37:34;;;;;;;10.70;7.97;;;;;;;;;;5066242;28;20463;-82
2023/08/23 03:40:01;;;;;;;12.37;9.40;;;;;;;;;;5067917;28;20449;-84
2023/08/23 03:42:29;;;;;;;11.10;9.80;;;;;;;;;;5064715;28;20566;-81
2023/08/23 03:44:56;;;;;;;11.13;8.57;;;;;;;;;;5065445;28;20953;-83
2023/08/23 03:47:24;;;;;;;13.80;8.80;;;;;;;;;;5064621;28;20945;-83
2023/08/23 03:49:51;;;;;;;9.50;8.60;;;;;;;;;;5063310;28;20860;-84
2023/08/23 03:52:18;;;;;;;7.93;7.23;;;;;;;;;;5062819;28;20475;-83
2023/08/23 03:54:45;;;;;;;10.60;9.40;;;;;;;;;;5062609;28;20950;-84
2023/08/23 03:57:12;;;;;;;9.27;8.43;;;;;;;;;;5061879;28;20457;-84
2023/08/23 03:59:40;;;;;;;10.00;9.10;;;;;;;;;;5062558;28;20448;-84
2023/08/23 04:02:08;;;;;;;9.90;8.90;;;;;;;;;;5062457;28;20476;-83
2023/08/23 04:04:35;;;;;;;11.80;8.60;;;;;;;;;;5062591;28;20495;-84
2023/08/23 04:07:02;;;;;;;12.93;10.10;;;;;;;;;;5062270;28;20460;-84
2023/08/23 04:09:29;;;;;;;13.53;10.73;;;;;;;;;;5062593;28;20448;-84
2023/08/23 04:11:56;;;;;;;11.27;9.87;;;;;;;;;;5063474;28;20463;-84
2023/08/23 04:14:23;;;;;;;13.13;10.47;;;;;;;;;;5064055;28;20459;-84
2023/08/23 04:16:52;;;;;;;10.60;9.60;;;;;;;;;;5063630;28;21037;-82
2023/08/23 04:19:19;;;;;;;11.57;10.20;;;;;;;;;;5063168;28;20447;-84
2023/08/23 04:21:47;;;;;;;15.13;12.30;;;;;;;;;;5063547;28;20559;-84
2023/08/23 04:24:14;;;;;;;14.20;11.47;;;;;;;;;;5064929;28;20453;-83
2023/08/23 04:26:41;;;;;;;12.97;11.23;;;;;;;;;;5065870;28;20475;-82
2023/08/23 04:29:08;;;;;;;12.10;10.90;;;;;;;;;;5062876;28;20452;-84
2023/08/23 04:31:35;;;;;;;14.63;11.10;;;;;;;;;;5061588;28;20492;-84
2023/08/23 04:34:04;;;;;;;13.57;12.17;;;;;;;;;;5062580;28;20972;-84
2023/08/23 04:36:32;;;;;;;12.93;11.67;;;;;;;;;;5062224;28;20449;-84
2023/08/23 04:38:59;;;;;;;15.07;13.53;;;;;;;;;;5061575;28;20463;-84
2023/08/23 04:41:26;;;;;;;14.23;12.73;;;;;;;;;;5061419;28;20453;-83
2023/08/23 04:43:53;;;;;;;15.50;14.10;;;;;;;;;;5061510;28;20444;-83
2023/08/23 04:46:20;;;;;;;18.87;14.00;;;;;;;;;;5061671;28;20790;-84
2023/08/23 04:48:47;;;;;;;15.70;14.10;;;;;;;;;;5061542;28;20445;-84
2023/08/23 04:51:16;;;;;;;15.70;14.07;;;;;;;;;;5061409;28;20978;-84
2023/08/23 04:53:43;;;;;;;16.00;14.30;;;;;;;;;;5060133;28;20452;-84
2023/08/23 04:56:10;;;;;;;15.77;13.30;;;;;;;;;;5061500;28;20539;-82
2023/08/23 04:58:38;;;;;;;15.47;13.77;;;;;;;;;;5060981;28;20539;-84
2023/08/23 05:01:05;;;;;;;15.80;14.20;;;;;;;;;;5059980;28;20447;-85
2023/08/23 05:03:32;;;;;;;15.73;13.50;;;;;;;;;;5060049;28;20488;-85
2023/08/23 05:05:59;;;;;;;15.97;14.27;;;;;;;;;;5060628;28;20459;-85
2023/08/23 05:08:29;;;;;;;20.03;13.87;;;;;;;;;;5059548;28;20906;-84
2023/08/23 05:10:57;;;;;;;16.50;14.80;;;;;;;;;;5059848;28;20495;-85
2023/08/23 05:13:24;;;;;;;16.63;14.93;;;;;;;;;;5061024;28;20997;-84
2023/08/23 05:15:54;;;;;;;15.50;13.87;;;;;;;;;;5059880;28;20445;-85
2023/08/23 05:18:22;;;;;;;18.90;15.63;;;;;;;;;;5059741;28;20467;-85
2023/08/23 05:20:53;;;;;;;19.27;15.40;;;;;;;;;;5060218;28;20457;-84
2023/08/23 05:23:20;;;;;;;17.73;15.87;;;;;;;;;;5060660;28;20472;-85
2023/08/23 05:25:50;;;;;;;17.27;15.27;;;;;;;;;;5059961;28;20865;-85
2023/08/23 05:28:18;;;;;;;19.40;14.23;;;;;;;;;;5061003;28;20460;-84
2023/08/23 05:30:45;;;;;;;16.77;14.70;;;;;;;;;;5061087;28;20972;-84
2023/08/23 05:33:12;;;;;;;19.93;14.40;;;;;;;;;;5061803;28;20477;-84
2023/08/23 05:35:40;;;;;;;15.90;14.30;;;;;;;;;;5061902;28;20471;-84
2023/08/23 05:38:08;;;;;;;18.60;16.70;;;;;;;;;;5062149;28;20448;-84
2023/08/23 05:40:35;;;;;;;18.77;16.17;;;;;;;;;;5061626;28;20453;-84
2023/08/23 05:43:03;;;;;;;16.23;13.90;;;;;;;;;;5061710;28;20969;-85
2023/08/23 05:45:30;;;;;;;14.97;13.47;;;;;;;;;;5061643;28;20457;-83
2023/08/23 05:47:58;;;;;;;14.53;13.10;;;;;;;;;;5061290;28;20530;-85
2023/08/23 05:50:25;;;;;;;19.27;13.60;;;;;;;;;;5061835;28;20899;-84
2023/08/23 05:52:52;;;;;;;15.83;14.00;;;;;;;;;;5062098;28;20641;-83
2023/08/23 05:55:19;;;;;;;19.20;13.77;;;;;;;;;;5061330;28;20789;-82
2023/08/23 05:57:47;;;;;;;14.80;13.40;;;;;;;;;;5060522;28;20463;-85
2023/08/23 06:00:15;;;;;;;15.33;12.77;;;;;;;;;;5058456;28;20445;-85
2023/08/23 06:02:43;;;;;;;14.53;13.00;;;;;;;;;;5057544;28;20708;-85
2023/08/23 06:05:13;;;;;;;13.40;12.00;;;;;;;;;;5058245;28;20465;-85
2023/08/23 06:07:40;;;;;;;20.30;14.53;;;;;;;;;;5057037;28;20461;-82
2023/08/23 06:10:08;;;;;;;13.07;11.77;;;;;;;;;;5058098;28;20538;-81
2023/08/23 06:12:35;;;;;;;26.83;14.37;;;;;;;;;;5057462;28;20480;-84
2023/08/23 06:15:04;;;;;;;24.43;10.70;;;;;;;;;;5058873;28;20452;-79
2023/08/23 06:17:32;;;;;;;14.40;12.27;;;;;;;;;;5059252;28;20441;-79
2023/08/23 06:19:59;;;;;;;21.27;14.53;;;;;;;;;;5057890;28;20537;-76
2023/08/23 06:22:26;;;;;;;28.43;17.07;;;;;;;;;;5055011;28;20469;-77
2023/08/23 06:24:54;;;;;;;22.10;18.43;;;;;;;;;;5055043;28;20449;-77
2023/08/23 06:27:21;;;;;;;23.77;20.40;;;;;;;;;;5055352;28;20451;-77
2023/08/23 06:29:48;;;;;;;31.70;23.00;;;;;;;;;;5054858;28;20445;-79
2023/08/23 06:32:15;;;;;;;24.33;20.03;;;;;;;;;;5055371;28;20499;-77
2023/08/23 06:34:43;;;;;;;23.77;19.00;;;;;;;;;;5054311;28;20968;-78
2023/08/23 06:37:11;;;;;;;20.80;17.90;;;;;;;;;;5056353;28;20500;-79
2023/08/23 06:39:39;;;;;;;23.10;17.17;;;;;;;;;;5056925;28;20868;-78
2023/08/23 06:42:06;;;;;;;24.03;17.37;;;;;;;;;;5057237;28;20863;-78
2023/08/23 06:44:33;;;;;;;19.73;15.80;;;;;;;;;;5057936;28;20452;-79
2023/08/23 06:47:00;;;;;;;24.03;18.60;;;;;;;;;;5056703;28;20448;-79
2023/08/23 06:49:27;;;;;;;23.90;21.30;;;;;;;;;;5057122;28;20922;-78
2023/08/23 06:51:56;;;;;;;24.60;20.73;;;;;;;;;;5057033;28;20501;-79
2023/08/23 06:54:23;;;;;;;21.40;19.20;;;;;;;;;;5057111;28;20819;-79
2023/08/23 06:56:50;;;;;;;25.67;19.87;;;;;;;;;;5058663;28;20453;-79
2023/08/23 06:59:17;;;;;;;24.67;21.00;;;;;;;;;;5058297;28;20453;-79
2023/08/23 07:01:44;;;;;;;24.40;21.90;;;;;;;;;;5054596;28;20802;-78
2023/08/23 07:04:11;;;;;;;25.30;19.90;;;;;;;;;;5056122;28;20463;-78
2023/08/23 07:06:38;;;;;;;23.37;21.07;;;;;;;;;;5054067;28;20448;-77
2023/08/23 07:09:07;;;;;;;22.80;20.00;;;;;;;;;;5053151;28;20448;-79
2023/08/23 07:11:35;;;;;;;25.00;20.73;;;;;;;;;;5054206;28;20964;-80
2023/08/23 07:14:02;;;;;;;26.90;21.77;;;;;;;;;;5061661;28;20946;-78
2023/08/23 07:16:29;;;;;;;23.63;21.07;;;;;;;;;;5062166;28;20476;-79
2023/08/23 07:18:56;;;;;;;23.23;19.40;;;;;;;;;;5062374;28;20440;-80
2023/08/23 07:21:23;;;;;;;23.73;21.23;;;;;;;;;;5063067;28;20660;-80
2023/08/23 07:23:53;;;;;;;20.17;18.03;;;;;;;;;;5062822;28;20455;-80
2023/08/23 07:26:21;;;;;;;43.37;17.00;;;;;;;;;;5061922;28;20452;-79
2023/08/23 07:28:48;;;;;;;18.40;16.50;;;;;;;;;;5062338;28;20448;-80
2023/08/23 07:31:16;;;;;;;20.80;14.77;;;;;;;;;;5062388;28;20491;-80
2023/08/23 07:33:43;;;;;;;15.20;13.70;;;;;;;;;;5061891;28;20960;-80
2023/08/23 07:36:10;;;;;;;17.00;13.37;;;;;;;;;;5062201;28;20460;-79
2023/08/23 07:38:37;;;;;;;14.37;12.90;;;;;;;;;;5061633;28;20972;-79
2023/08/23 07:41:04;;;;;;;14.60;13.23;;;;;;;;;;5060646;28;20455;-77
2023/08/23 07:43:33;;;;;;;13.50;12.00;;;;;;;;;;5060829;28;21008;-78
2023/08/23 07:46:02;;;;;;;15.63;12.00;;;;;;;;;;5059422;28;20453;-78
2023/08/23 07:48:30;;;;;;;11.03;9.47;;;;;;;;;;5059889;28;20460;-79
2023/08/23 07:51:00;;;;;;;8.40;7.70;;;;;;;;;;5060551;28;20484;-81
2023/08/23 07:53:27;;;;;;;9.97;8.93;;;;;;;;;;5060741;28;20473;-81
2023/08/23 07:55:54;;;;;;;13.83;9.30;;;;;;;;;;5058867;28;20455;-82
2023/08/23 07:58:22;;;;;;;9.63;8.67;;;;;;;;;;5060459;28;20452;-81
2023/08/23 08:00:51;;;;;;;8.30;7.23;;;;;;;;;;5060436;28;20452;-83
2023/08/23 08:03:18;;;;;;;10.73;8.53;;;;;;;;;;5061368;28;20555;-80
2023/08/23 08:05:45;;;;;;;8.13;6.50;;;;;;;;;;5061220;28;20460;-80
2023/08/23 08:08:12;;;;;;;7.00;6.30;;;;;;;;;;5084006;22;20500;-82
2023/08/23 08:10:39;;;;;;;8.63;7.17;;;;;;;;;;5086330;28;20443;-83
2023/08/23 08:13:07;;;;;;;7.53;6.83;;;;;;;;;;5086223;28;20482;-83
2023/08/23 08:15:34;;;;;;;8.70;6.23;;;;;;;;;;5084954;28;20829;-83
2023/08/23 08:18:02;;;;;;;8.03;7.03;;;;;;;;;;5084879;28;20973;-83
2023/08/23 08:20:30;;;;;;;7.43;6.73;;;;;;;;;;5084507;28;20439;-84
2023/08/23 08:22:56;;;;;;;6.93;6.23;;;;;;;;;;5084713;28;20472;-84
2023/08/23 08:25:25;;;;;;;7.93;7.23;;;;;;;;;;5083173;28;20447;-84
2023/08/23 08:27:53;;;;;;;7.03;5.80;;;;;;;;;;5082901;28;20470;-85
2023/08/23 08:30:20;;;;;;;6.53;5.93;;;;;;;;;;5082794;28;20610;-81
2023/08/23 08:32:48;;;;;;;7.90;5.93;;;;;;;;;;5080402;28;20578;-83
2023/08/23 08:35:16;;;;;;;6.33;5.80;;;;;;;;;;5084069;28;20836;-84
2023/08/23 08:37:43;;;;;;;5.80;4.93;;;;;;;;;;5083443;28;20464;-84
2023/08/23 08:40:11;;;;;;;7.80;5.30;;;;;;;;;;5083712;28;20527;-85
2023/08/23 08:42:39;;;;;;;4.80;4.40;;;;;;;;;;5083840;28;20526;-85
2023/08/23 08:45:08;;;;;;;7.03;4.13;;;;;;;;;;5083650;28;20977;-85
2023/08/23 08:47:36;;;;;;;6.23;4.30;;;;;;;;;;5081877;28;20925;-85
2023/08/23 08:50:03;;;;;;;5.73;5.27;;;;;;;;;;5082527;28;20436;-85
2023/08/23 08:52:32;;;;;;;5.30;4.80;;;;;;;;;;5082747;28;20575;-84
2023/08/23 08:55:00;;;;;;;5.70;5.20;;;;;;;;;;5082468;28;20486;-85
2023/08/23 08:57:29;;;;;;;4.90;4.50;;;;;;;;;;5081415;28;20819;-83
2023/08/23 08:59:57;;;;;;;5.80;4.97;;;;;;;;;;5080938;28;20435;-85
2023/08/23 09:02:25;;;;;;;5.33;4.57;;;;;;;;;;5081043;28;20559;-85
2023/08/23 09:04:52;;;;;;;5.37;4.97;;;;;;;;;;5082375;28;20456;-84
2023/08/23 09:07:20;;;;;;;5.33;4.40;;;;;;;;;;5083126;28;20524;-84
2023/08/23 09:09:48;;;;;;;5.40;5.00;;;;;;;;;;5083001;28;20459;-83
2023/08/23 09:12:15;;;;;;;6.97;4.90;;;;;;;;;;5083395;28;20526;-83
2023/08/23 09:14:48;;;;;;;5.03;4.50;;;;;;;;;;5082042;28;20469;-83
2023/08/23 09:17:16;;;;;;;5.63;4.43;;;;;;;;;;5081787;28;20482;-84
2023/08/23 09:19:43;;;;;;;4.87;4.10;;;;;;;;;;5081182;28;20554;-83
2023/08/23 09:22:10;;;;;;;6.00;4.30;;;;;;;;;;5079680;28;20478;-84
2023/08/23 09:24:46;;;;;;;7.67;4.70;;;;;;;;;;5080183;28;20497;-85
2023/08/23 09:27:15;;;;;;;5.20;4.70;;;;;;;;;;5081636;28;20434;-84
2023/08/23 09:29:43;;;;;;;6.80;4.67;;;;;;;;;;5081977;28;20486;-85
2023/08/23 09:32:10;;;;;;;5.00;4.60;;;;;;;;;;5082775;28;20488;-83
2023/08/23 09:34:37;;;;;;;5.00;4.60;;;;;;;;;;5082282;28;20455;-83
2023/08/23 09:37:08;;;;;;;4.57;4.00;;;;;;;;;;5081768;28;20431;-85
2023/08/23 09:39:35;;;;;;;5.63;5.07;;;;;;;;;;5081873;28;20459;-83
2023/08/23 09:42:05;;;;;;;4.43;4.00;;;;;;;;;;5083012;28;20494;-85
2023/08/23 09:44:37;;;;;;;6.90;4.40;;;;;;;;;;5080318;28;20930;-84
2023/08/23 09:50:04;;;;;;;5.37;4.87;;;;;;;;;;5038782;28;20421;-83
2023/08/23 09:52:32;;;;;;;5.43;4.93;;;;;;;;;;5076387;28;20491;-83
2023/08/23 09:55:04;;;;;;;6.40;5.67;;;;;;;;;;5085038;28;20460;-84
2023/08/23 09:57:32;;;;;;;5.83;5.23;;;;;;;;;;5080219;28;20495;-86
2023/08/23 10:00:01;;;;;;;8.13;5.30;;;;;;;;;;5077974;28;20452;-87
2023/08/23 10:02:29;;;;;;;6.10;5.60;;;;;;;;;;5079804;28;20475;-87
2023/08/23 10:04:57;;;;;;;8.60;5.77;;;;;;;;;;5082107;28;20475;-86
2023/08/23 10:07:25;;;;;;;6.10;5.53;;;;;;;;;;5080615;28;20463;-85
2023/08/23 10:09:53;;;;;;;8.00;7.30;;;;;;;;;;5079083;28;20455;-83
2023/08/23 10:12:20;;;;;;;6.60;6.03;;;;;;;;;;5077339;28;20858;-84
2023/08/23 10:14:50;;;;;;;7.40;6.10;;;;;;;;;;5077215;28;20483;-84
2023/08/23 10:17:21;;;;;;;6.77;5.50;;;;;;;;;;5076382;28;20751;-83
2023/08/23 10:19:49;;;;;;;5.83;5.10;;;;;;;;;;5077384;28;20438;-84
2023/08/23 10:22:17;;;;;;;6.50;5.37;;;;;;;;;;5076829;28;20493;-85
2023/08/23 10:24:47;;;;;;;7.10;6.37;;;;;;;;;;5076723;28;20455;-85
2023/08/23 10:27:14;;;;;;;8.70;6.10;;;;;;;;;;5076794;28;20509;-85
2023/08/23 10:29:41;;;;;;;6.90;6.30;;;;;;;;;;5077165;28;20460;-85
2023/08/23 10:32:09;;;;;;;5.73;5.33;;;;;;;;;;5076833;28;20491;-84
2023/08/23 10:34:39;;;;;;;8.47;4.97;;;;;;;;;;5090786;28;20442;-84
2023/08/23 10:37:15;;;;;;;7.43;6.23;;;;;;;;;;5095600;28;20459;-84
2023/08/23 10:39:52;;;;;;;5.93;5.50;;;;;;;;;;5097050;28;20972;-84
2023/08/23 10:42:19;;;;;;;6.60;6.00;;;;;;;;;;5096825;28;20768;-84
2023/08/23 10:44:47;;;;;;;7.80;5.90;;;;;;;;;;5098160;28;20481;-84
2023/08/23 10:47:16;;;;;;;5.37;4.97;;;;;;;;;;5095505;28;20814;-84
2023/08/23 10:49:44;;;;;;;5.33;4.83;;;;;;;;;;5096227;28;20450;-84
2023/08/23 10:52:11;;;;;;;7.73;5.40;;;;;;;;;;5095820;28;20494;-84
2023/08/23 10:54:39;;;;;;;5.93;4.73;;;;;;;;;;5095428;28;20448;-84
2023/08/23 10:57:06;;;;;;;6.43;5.83;;;;;;;;;;5096199;28;20450;-84
2023/08/23 10:59:33;;;;;;;4.83;4.13;;;;;;;;;;5096358;28;20522;-84
2023/08/23 11:02:00;;;;;;;6.00;4.23;;;;;;;;;;5096046;28;20470;-85
2023/08/23 11:04:27;;;;;;;5.57;4.17;;;;;;;;;;5096244;28;20865;-84
2023/08/23 11:06:56;;;;;;;4.60;4.17;;;;;;;;;;5096894;28;20434;-85
2023/08/23 11:09:24;;;;;;;4.83;3.77;;;;;;;;;;5096350;28;20922;-85
2023/08/23 11:11:51;;;;;;;5.83;4.67;;;;;;;;;;5097299;28;20497;-83
2023/08/23 11:14:18;;;;;;;6.33;4.27;;;;;;;;;;5097650;28;20463;-85
2023/08/23 11:16:46;;;;;;;4.80;4.50;;;;;;;;;;5097222;28;20947;-85
2023/08/23 11:19:14;;;;;;;7.00;4.93;;;;;;;;;;5097152;28;20442;-85
2023/08/23 11:21:41;;;;;;;5.17;4.37;;;;;;;;;;5096412;28;20562;-85
2023/08/23 11:24:09;;;;;;;4.50;4.10;;;;;;;;;;5098925;28;20510;-85
2023/08/23 11:26:37;;;;;;;4.73;3.93;;;;;;;;;;5098773;28;20470;-85
2023/08/23 11:29:04;;;;;;;5.23;4.70;;;;;;;;;;5099615;28;20465;-84
2023/08/23 11:31:33;;;;;;;7.20;5.53;;;;;;;;;;5099317;28;20472;-84
2023/08/23 11:34:01;;;;;;;4.60;4.20;;;;;;;;;;5098334;28;20426;-84
2023/08/23 11:36:29;;;;;;;4.77;4.30;;;;;;;;;;5100097;28;20438;-83
2023/08/23 11:38:56;;;;;;;11.70;4.27;;;;;;;;;;5100457;28;20877;-83
2023/08/23 11:41:33;;;;;;;5.43;4.93;;;;;;;;;;5097922;28;20477;-82
2023/08/23 11:44:03;;;;;;;5.10;4.40;;;;;;;;;;5099117;28;20460;-83
2023/08/23 11:46:30;;;;;;;6.07;4.37;;;;;;;;;;5099300;28;20415;-84
2023/08/23 11:48:57;;;;;;;4.63;3.70;;;;;;;;;;5099914;28;20512;-82
2023/08/23 11:51:24;;;;;;;5.33;4.07;;;;;;;;;;5099926;28;20533;-83
2023/08/23 11:53:54;;;;;;;5.10;4.70;;;;;;;;;;5099875;28;20482;-83
2023/08/23 11:56:22;;;;;;;4.80;4.33;;;;;;;;;;5101089;28;20450;-82
2023/08/23 11:58:50;;;;;;;4.40;4.00;;;;;;;;;;5101398;28;20507;-86
2023/08/23 12:01:17;;;;;;;6.33;5.00;;;;;;;;;;5103318;28;20442;-84
2023/08/23 12:03:44;;;;;;;5.10;4.70;;;;;;;;;;5104716;28;20451;-86
2023/08/23 12:06:12;;;;;;;5.00;4.50;;;;;;;;;;5101981;28;20456;-85
2023/08/23 12:08:39;;;;;;;4.57;4.20;;;;;;;;;;5102556;28;20950;-83
2023/08/23 12:11:06;;;;;;;5.13;4.60;;;;;;;;;;5103018;28;20450;-84
2023/08/23 12:13:33;;;;;;;6.97;5.50;;;;;;;;;;5101666;28;20490;-85
2023/08/23 12:16:02;;;;;;;5.10;4.70;;;;;;;;;;5102292;28;20454;-85
2023/08/23 12:18:29;;;;;;;5.93;4.23;;;;;;;;;;5101076;28;20825;-85
2023/08/23 12:20:56;;;;;;;4.90;4.50;;;;;;;;;;5102667;28;20454;-83
2023/08/23 12:23:23;;;;;;;4.07;3.77;;;;;;;;;;5102705;28;20470;-83
2023/08/23 12:25:51;;;;;;;5.03;4.50;;;;;;;;;;5102182;28;20787;-85
2023/08/23 12:28:18;;;;;;;4.60;3.67;;;;;;;;;;5102593;28;20458;-85
2023/08/23 12:30:45;;;;;;;4.03;3.73;;;;;;;;;;5100556;28;20545;-83
2023/08/23 12:33:14;;;;;;;7.67;4.20;;;;;;;;;;5101011;28;20986;-81
2023/08/23 12:35:41;;;;;;;6.17;4.63;;;;;;;;;;5100812;28;20962;-83
2023/08/23 12:38:09;;;;;;;5.50;4.60;;;;;;;;;;5100683;28;20935;-85
2023/08/23 12:40:36;;;;;;;4.90;4.40;;;;;;;;;;5099662;28;20505;-84
2023/08/23 12:43:03;;;;;;;4.80;4.40;;;;;;;;;;5099451;28;20474;-84
2023/08/23 12:45:30;;;;;;;4.70;4.10;;;;;;;;;;5100349;28;20462;-84
2023/08/23 12:47:58;;;;;;;8.80;4.40;;;;;;;;;;5100070;28;20453;-83
2023/08/23 12:50:26;;;;;;;9.10;4.57;;;;;;;;;;5101930;28;20450;-83
2023/08/23 12:52:53;;;;;;;6.20;4.27;;;;;;;;;;5104234;28;20491;-86
2023/08/23 12:55:21;;;;;;;8.13;4.53;;;;;;;;;;5104919;28;20442;-87
2023/08/23 12:57:48;;;;;;;6.07;4.60;;;;;;;;;;5106100;28;20455;-86
2023/08/23 13:00:17;;;;;;;8.50;5.00;;;;;;;;;;5104914;28;20443;-86
2023/08/23 13:02:44;;;;;;;4.93;4.23;;;;;;;;;;5104019;28;20546;-86
2023/08/23 13:05:11;;;;;;;5.00;4.43;;;;;;;;;;5104808;28;20454;-88
2023/08/23 13:07:40;;;;;;;5.47;4.90;;;;;;;;;;5098953;28;20577;-87
2023/08/23 13:10:08;;;;;;;4.87;4.07;;;;;;;;;;5098036;28;20457;-85
2023/08/23 13:12:36;;;;;;;4.83;3.83;;;;;;;;;;5100886;28;20561;-85
2023/08/23 13:15:03;;;;;;;4.40;3.70;;;;;;;;;;5099269;28;20977;-86
2023/08/23 13:17:30;;;;;;;6.40;4.73;;;;;;;;;;5098052;28;20451;-87
2023/08/23 13:19:57;;;;;;;5.93;4.70;;;;;;;;;;5099825;28;20459;-87
2023/08/23 13:22:24;;;;;;;16.07;4.80;;;;;;;;;;5098069;28;20482;-85
2023/08/23 13:24:53;;;;;;;10.40;5.00;;;;;;;;;;5097533;28;20466;-87
2023/08/23 13:27:20;;;;;;;4.57;4.17;;;;;;;;;;5097567;28;20443;-81
2023/08/23 13:29:47;;;;;;;10.30;5.07;;;;;;;;;;5097089;28;20475;-82
2023/08/23 13:32:14;;;;;;;5.53;5.03;;;;;;;;;;5098252;28;20474;-82
2023/08/23 13:34:42;;;;;;;4.60;4.27;;;;;;;;;;5097683;28;20482;-82
2023/08/23 13:37:09;;;;;;;5.70;5.20;;;;;;;;;;5096948;28;20454;-81
2023/08/23 13:39:36;;;;;;;5.80;4.93;;;;;;;;;;5097467;28;20526;-82
2023/08/23 13:42:05;;;;;;;5.77;5.07;;;;;;;;;;5097317;28;20509;-83
2023/08/23 13:44:32;;;;;;;6.70;4.63;;;;;;;;;;5097268;28;20454;-84
2023/08/23 13:46:59;;;;;;;5.27;4.77;;;;;;;;;;5097057;28;20457;-84
2023/08/23 13:49:27;;;;;;;6.70;5.03;;;;;;;;;;5097310;28;20431;-83
2023/08/23 13:51:54;;;;;;;5.30;4.77;;;;;;;;;;5097403;28;20477;-83
2023/08/23 13:54:21;;;;;;;5.47;4.87;;;;;;;;;;5097357;28;20478;-81
2023/08/23 13:56:48;;;;;;;7.50;4.50;;;;;;;;;;5096484;28;20450;-82
2023/08/23 13:59:17;;;;;;;5.43;4.97;;;;;;;;;;5096897;28;20546;-85
2023/08/23 14:01:45;;;;;;;8.27;5.40;;;;;;;;;;5097089;28;20942;-84
2023/08/23 14:04:12;;;;;;;5.73;5.20;;;;;;;;;;5097245;28;20462;-83
2023/08/23 14:06:39;;;;;;;6.93;5.50;;;;;;;;;;5097693;28;20473;-83
2023/08/23 14:09:08;;;;;;;5.63;4.60;;;;;;;;;;5097967;28;20447;-83
2023/08/23 14:11:36;;;;;;;5.43;4.97;;;;;;;;;;5097124;28;20457;-84
2023/08/23 14:14:03;;;;;;;5.60;4.40;;;;;;;;;;5097177;28;20470;-83
2023/08/23 14:16:32;;;;;;;4.77;4.37;;;;;;;;;;5096893;28;20961;-80
2023/08/23 14:18:59;;;;;;;5.80;4.87;;;;;;;;;;5096426;28;20530;-82
2023/08/23 14:21:26;;;;;;;5.93;4.67;;;;;;;;;;5096107;28;20435;-84
2023/08/23 14:23:53;;;;;;;10.80;4.60;;;;;;;;;;5096526;28;20458;-82
2023/08/23 14:26:21;;;;;;;8.37;5.33;;;;;;;;;;5096711;28;20836;-82
2023/08/23 14:28:48;;;;;;;5.93;4.50;;;;;;;;;;5097067;28;20505;-82
2023/08/23 14:31:15;;;;;;;5.70;5.17;;;;;;;;;;5097751;28;20461;-82
2023/08/23 14:33:44;;;;;;;7.80;5.23;;;;;;;;;;5096958;28;20490;-83
2023/08/23 14:36:11;;;;;;;8.53;4.43;;;;;;;;;;5098071;28;20903;-81